Time;durP1;ratioP1;P1;durP2;ratioP2;P2;SDS_P1;SDS_P2;PMS_P1;PMS_P2;Temp;Humidity;BMP_temperature;BMP_pressure;BME280_temperature;BME280_humidity;BME280_pressure;Samples;Min_cycle;Max_cycle;Signal;HPM_P1;HPM_P2
2021/01/28 00:00:44;;;;;;;11.33;9.13;;;;;;;-1.14;88.70;98016.36;1807911;79;21113;-61
2021/01/28 00:03:12;;;;;;;11.93;10.32;;;;;;;-1.14;88.75;98022.30;1807878;78;21132;-61
2021/01/28 00:05:43;;;;;;;12.23;10.00;;;;;;;-1.13;88.68;98012.51;1807767;79;21157;-61
2021/01/28 00:08:11;;;;;;;12.55;10.15;;;;;;;-1.08;88.53;98020.92;1807904;79;21129;-61
2021/01/28 00:10:39;;;;;;;12.68;9.03;;;;;;;-1.06;88.31;98017.92;1807962;79;21050;-61
2021/01/28 00:13:07;;;;;;;10.40;8.80;;;;;;;-1.04;88.19;98010.23;1807954;79;21471;-61
2021/01/28 00:15:36;;;;;;;11.93;9.43;;;;;;;-1.02;88.06;98003.83;1807911;78;21369;-61
2021/01/28 00:18:06;;;;;;;12.00;9.90;;;;;;;-1.01;87.89;98004.23;1807836;79;22082;-63
2021/01/28 00:20:41;;;;;;;11.10;9.33;;;;;;;-1.01;87.86;97985.95;1807873;78;21097;-61
2021/01/28 00:23:08;;;;;;;12.78;9.58;;;;;;;-1.00;87.79;97981.69;1807875;79;21069;-61
2021/01/28 00:25:37;;;;;;;11.05;9.65;;;;;;;-1.00;87.72;97965.09;1807854;79;21073;-61
2021/01/28 00:28:08;;;;;;;12.40;9.75;;;;;;;-0.99;87.62;97962.92;1807834;79;21196;-61
2021/01/28 00:30:40;;;;;;;11.43;9.63;;;;;;;-1.00;87.49;97957.44;1807844;79;21066;-62
2021/01/28 00:33:09;;;;;;;13.50;9.73;;;;;;;-0.99;87.50;97958.66;1807912;79;21065;-62
2021/01/28 00:35:44;;;;;;;11.33;8.98;;;;;;;-1.01;87.32;97954.05;1807898;79;21058;-62
2021/01/28 00:38:27;;;;;;;11.45;9.40;;;;;;;-0.99;87.39;97941.23;1808019;79;21144;-61
2021/01/28 00:40:57;;;;;;;11.63;8.93;;;;;;;-0.96;87.19;97948.83;1807931;79;21196;-60
2021/01/28 00:43:24;;;;;;;10.90;8.53;;;;;;;-0.96;87.07;97939.89;1807684;79;21978;-61
2021/01/28 00:45:53;;;;;;;11.43;9.10;;;;;;;-0.97;86.91;97935.23;1807861;79;21097;-61
2021/01/28 00:48:24;;;;;;;13.40;9.68;;;;;;;-0.96;87.02;97936.07;1807867;78;21552;-61
2021/01/28 00:50:50;;;;;;;10.82;9.18;;;;;;;-0.95;87.03;97946.68;1807849;79;21585;-61
2021/01/28 00:53:18;;;;;;;9.18;7.83;;;;;;;-0.95;87.09;97946.68;1807849;79;21374;-61
2021/01/28 00:55:46;;;;;;;9.68;8.28;;;;;;;-0.93;87.22;97942.39;1807746;78;21069;-61
2021/01/28 00:58:18;;;;;;;11.25;9.30;;;;;;;-0.93;87.35;97953.88;1806873;79;21085;-62
2021/01/28 01:00:47;;;;;;;9.03;7.60;;;;;;;-0.93;87.60;97939.84;1807891;78;21053;-62
2021/01/28 01:03:16;;;;;;;11.90;8.75;;;;;;;-0.94;87.81;97935.17;1807818;79;21137;-62
2021/01/28 01:05:45;;;;;;;9.58;8.28;;;;;;;-0.92;87.81;97928.76;1807953;79;21458;-62
2021/01/28 01:08:18;;;;;;;11.63;8.55;;;;;;;-0.95;88.01;97932.21;1807801;79;21010;-61
2021/01/28 01:11:01;;;;;;;11.12;9.15;;;;;;;-0.95;88.28;97924.98;1807990;79;21482;-61
2021/01/28 01:13:31;;;;;;;;;;;;;;;-0.95;88.42;97922.44;1810601;78;21479;-61
2021/01/28 01:16:17;;;;;;;10.05;8.13;;;;;;;-0.98;88.55;97948.02;1806446;79;20244;-61
2021/01/28 01:18:47;;;;;;;9.35;7.67;;;;;;;-1.02;89.01;97920.47;1807806;79;21146;-61
2021/01/28 01:21:15;;;;;;;9.78;8.30;;;;;;;-1.03;89.12;97912.41;1807726;79;21056;-61
2021/01/28 01:23:44;;;;;;;9.23;7.85;;;;;;;-1.01;89.22;97911.95;1807910;79;21547;-61
2021/01/28 01:26:13;;;;;;;9.88;8.08;;;;;;;-1.01;89.05;97909.83;1807166;78;21558;-61
2021/01/28 01:28:42;;;;;;;8.95;8.03;;;;;;;-1.03;89.28;97923.05;1807828;79;21701;-61
2021/01/28 01:31:26;;;;;;;10.23;7.67;;;;;;;-1.05;89.42;97926.47;1805275;79;21379;-61
2021/01/28 01:33:54;;;;;;;10.13;8.18;;;;;;;-1.09;95.62;97946.53;1807850;79;20931;-61
2021/01/28 01:36:24;;;;;;;8.45;7.42;;;;;;;-1.10;97.20;97933.36;1807513;79;21073;-62
2021/01/28 01:38:53;;;;;;;11.22;8.73;;;;;;;-1.10;97.14;97921.05;1807289;78;21101;-62
2021/01/28 01:41:29;;;;;;;10.68;8.00;;;;;;;-1.09;93.08;97911.24;1807525;79;21117;-61
2021/01/28 01:44:00;;;;;;;9.53;8.23;;;;;;;-1.10;92.41;97919.33;1790300;79;21364;-61
2021/01/28 01:46:28;;;;;;;10.80;8.30;;;;;;;-1.09;92.03;97909.53;1816354;79;20946;-60
2021/01/28 01:48:59;;;;;;;9.13;8.20;;;;;;;-1.09;91.90;97915.06;1816318;79;20927;-61
2021/01/28 01:51:42;;;;;;;10.35;7.83;;;;;;;-1.12;92.06;97917.24;1816636;79;21486;-60
2021/01/28 01:54:28;;;;;;;10.38;8.10;;;;;;;-1.11;91.95;97916.38;1813768;77;21069;-61
2021/01/28 01:57:01;;;;;;;10.98;8.33;;;;;;;-1.09;91.81;97902.31;1816402;79;21400;-60
2021/01/28 01:59:42;;;;;;;9.75;7.97;;;;;;;-1.09;91.58;97889.55;1816003;77;21152;-62
2021/01/28 02:02:20;;;;;;;9.10;7.25;;;;;;;-1.06;91.50;97893.33;1888645;76;22811;-62
2021/01/28 02:05:13;;;;;;;10.23;7.83;;;;;;;-1.12;91.60;97901.09;1775365;80;21055;-62
2021/01/28 02:07:59;;;;;;;9.13;7.70;;;;;;;-1.11;91.75;97908.72;1850026;77;22361;-62
2021/01/28 02:10:46;;;;;;;10.28;7.87;;;;;;;-1.11;91.72;97918.08;1849835;77;20929;-62
2021/01/28 02:13:31;;;;;;;8.25;7.00;;;;;;;-1.10;91.68;97921.88;1849881;77;21119;-60
2021/01/28 02:16:05;;;;;;;8.43;7.15;;;;;;;-1.07;91.27;97909.07;1829574;77;21143;-62
2021/01/28 02:18:35;;;;;;;8.13;7.08;;;;;;;-1.07;91.11;97909.50;1848897;77;20916;-62
2021/01/28 02:21:27;;;;;;;8.10;6.92;;;;;;;-1.05;90.99;97897.13;1849534;77;21983;-62
2021/01/28 02:24:25;;;;;;;9.50;7.67;;;;;;;-1.02;90.98;97894.95;1849495;77;21779;-61
2021/01/28 02:26:54;;;;;;;9.80;7.72;;;;;;;-0.99;90.86;97897.41;1849876;77;21071;-62
2021/01/28 02:29:40;;;;;;;8.15;6.92;;;;;;;-0.99;90.63;97894.86;1849861;77;21107;-61
2021/01/28 02:32:08;;;;;;;8.10;6.92;;;;;;;-0.95;90.66;97905.42;1849841;77;21067;-61
2021/01/28 02:34:41;;;;;;;7.90;6.95;;;;;;;-0.94;90.34;97926.67;1849812;77;21351;-62
2021/01/28 02:37:15;;;;;;;8.33;7.12;;;;;;;-0.92;90.30;97937.26;1819718;77;21174;-61
2021/01/28 02:39:45;;;;;;;8.08;6.62;;;;;;;-0.87;90.26;97923.14;1844303;77;21055;-61
2021/01/28 02:42:23;;;;;;;8.83;7.92;;;;;;;-0.84;89.72;97920.09;1849771;77;21056;-61
2021/01/28 02:44:53;;;;;;;9.65;7.55;;;;;;;-0.81;89.63;97916.64;1849051;77;21533;-61
2021/01/28 02:47:38;;;;;;;7.33;6.40;;;;;;;-0.80;89.23;97915.30;1849864;77;21408;-61
2021/01/28 02:50:12;;;;;;;7.92;6.50;;;;;;;-0.79;88.99;97900.83;1847317;77;21985;-61
2021/01/28 02:52:40;;;;;;;7.55;6.75;;;;;;;-0.77;88.77;97889.72;1819387;77;21161;-61
2021/01/28 02:55:10;;;;;;;8.55;6.55;;;;;;;-0.77;88.64;97903.75;1830053;77;21142;-61
2021/01/28 02:57:39;;;;;;;6.70;5.85;;;;;;;-0.78;88.51;97898.67;1816442;79;21158;-62
2021/01/28 03:00:12;;;;;;;8.53;6.50;;;;;;;-0.80;88.39;97903.81;1816387;79;21364;-62
2021/01/28 03:02:40;;;;;;;6.25;5.60;;;;;;;-0.77;88.52;97906.30;1816587;79;26348;-62
2021/01/28 03:05:09;;;;;;;6.85;6.15;;;;;;;-0.77;88.40;97899.08;1816461;79;20921;-62
2021/01/28 03:07:39;;;;;;;8.45;7.00;;;;;;;-0.77;88.24;97901.20;1815880;79;21171;-62
2021/01/28 03:10:09;;;;;;;6.58;5.80;;;;;;;-0.74;88.33;97911.78;1816440;78;21067;-62
2021/01/28 03:12:38;;;;;;;7.60;6.35;;;;;;;-0.73;88.12;97909.20;1814517;79;21153;-62
2021/01/28 03:15:09;;;;;;;6.92;5.58;;;;;;;-0.71;87.84;97907.89;1812661;79;21131;-63
2021/01/28 03:17:39;;;;;;;6.50;5.72;;;;;;;-0.70;87.85;97913.41;1815164;79;21067;-63
2021/01/28 03:20:12;;;;;;;6.62;5.90;;;;;;;-0.70;87.94;97906.59;1815880;79;21059;-63
2021/01/28 03:22:40;;;;;;;6.97;5.25;;;;;;;-0.68;88.02;97893.80;1816005;78;21146;-62
2021/01/28 03:25:20;;;;;;;6.45;5.62;;;;;;;-0.66;88.09;97895.04;1813049;79;21508;-61
2021/01/28 03:27:47;;;;;;;8.68;5.67;;;;;;;-0.66;88.09;97888.22;1815919;79;21079;-62
2021/01/28 03:30:29;;;;;;;7.05;5.87;;;;;;;-0.65;88.15;97906.50;1815871;79;21472;-62
2021/01/28 03:32:58;;;;;;;5.95;5.35;;;;;;;-0.65;88.29;97886.51;1815894;79;21047;-62
2021/01/28 03:35:26;;;;;;;7.10;5.80;;;;;;;-0.68;88.70;97884.86;1815888;79;21504;-61
2021/01/28 03:37:56;;;;;;;7.72;6.10;;;;;;;-0.70;88.97;97884.89;1815727;79;21204;-62
2021/01/28 03:40:27;;;;;;;6.53;5.58;;;;;;;-0.72;89.02;97893.02;1815797;79;21504;-62
2021/01/28 03:42:56;;;;;;;5.92;5.05;;;;;;;-0.72;89.19;97889.63;1815899;79;21043;-61
2021/01/28 03:45:23;;;;;;;5.83;5.03;;;;;;;-0.69;89.28;97883.17;1815903;78;21839;-62
2021/01/28 03:47:56;;;;;;;5.90;5.30;;;;;;;-0.67;89.24;97872.50;1786611;79;21131;-62
2021/01/28 03:50:30;;;;;;;5.58;4.65;;;;;;;-0.67;89.24;97866.55;1808465;79;22130;-62
2021/01/28 03:53:06;;;;;;;5.42;4.60;;;;;;;-0.70;89.20;97883.61;1774465;79;21083;-62
2021/01/28 03:55:46;;;;;;;5.25;4.75;;;;;;;-0.71;89.27;97883.20;1776302;79;21468;-61
2021/01/28 03:58:14;;;;;;;5.45;4.65;;;;;;;-0.69;89.27;97888.28;1815829;79;21115;-62
2021/01/28 04:00:43;;;;;;;5.25;4.75;;;;;;;-0.70;89.15;97888.72;1814885;79;21106;-61
2021/01/28 04:03:13;;;;;;;4.72;4.25;;;;;;;-0.68;89.03;97880.19;1810569;79;21334;-62
2021/01/28 04:06:01;;;;;;;4.87;4.28;;;;;;;-0.67;89.03;97884.42;1747678;82;21568;-62
2021/01/28 04:08:47;;;;;;;4.62;3.50;;;;;;;-0.67;88.97;97872.50;1747740;82;21129;-61
2021/01/28 04:11:25;;;;;;;4.80;3.95;;;;;;;-0.62;88.72;97877.51;1873614;76;22702;-61
2021/01/28 04:13:54;;;;;;;4.00;3.30;;;;;;;-0.66;88.76;97872.91;1841596;77;21066;-61
2021/01/28 04:16:22;;;;;;;4.40;3.85;;;;;;;-0.64;88.87;97873.71;1841602;77;22199;-61
2021/01/28 04:18:51;;;;;;;4.85;4.22;;;;;;;-0.62;88.73;97874.95;1841489;78;20982;-61
2021/01/28 04:21:21;;;;;;;4.03;3.62;;;;;;;-0.63;88.52;97890.71;1838008;78;21129;-61
2021/01/28 04:23:50;;;;;;;3.70;3.05;;;;;;;-0.62;88.54;97868.14;1811332;78;21153;-62
2021/01/28 04:26:22;;;;;;;3.87;3.47;;;;;;;-0.61;88.43;97861.31;1839584;77;21054;-62
2021/01/28 04:28:52;;;;;;;3.83;3.33;;;;;;;-0.63;88.38;97859.23;1841586;78;21178;-61
2021/01/28 04:31:38;;;;;;;3.20;2.90;;;;;;;-0.64;88.33;97859.67;1841544;77;20998;-61
2021/01/28 04:34:08;;;;;;;3.37;3.02;;;;;;;-0.65;88.52;97849.48;1840381;77;21121;-61
2021/01/28 04:36:36;;;;;;;3.25;2.80;;;;;;;-0.68;88.35;97858.48;1841539;78;21089;-61
2021/01/28 04:39:20;;;;;;;3.45;2.80;;;;;;;-0.68;88.43;97858.05;1837049;78;21521;-61
2021/01/28 04:41:49;;;;;;;3.08;2.70;;;;;;;-0.68;88.23;97832.52;1841539;78;22162;-61
2021/01/28 04:44:17;;;;;;;2.98;2.58;;;;;;;-0.66;88.25;97833.77;1841586;77;21616;-61
2021/01/28 04:46:52;;;;;;;2.90;2.40;;;;;;;-0.65;88.34;97849.05;1827756;78;21052;-61
2021/01/28 04:49:33;;;;;;;3.15;2.72;;;;;;;-0.64;88.00;97826.91;1836360;78;21061;-60
2021/01/28 04:52:20;;;;;;;3.30;2.70;;;;;;;-0.63;87.98;97832.42;1841525;78;21529;-60
2021/01/28 04:54:53;;;;;;;3.42;2.70;;;;;;;-0.64;88.02;97833.30;1822692;78;21423;-61
2021/01/28 04:57:23;;;;;;;3.30;2.20;;;;;;;-0.68;87.89;97841.45;1807524;79;21097;-61
2021/01/28 04:59:53;;;;;;;2.20;2.00;;;;;;;-0.68;88.19;97853.38;1808492;78;21046;-61
2021/01/28 05:02:26;;;;;;;3.02;2.50;;;;;;;-0.67;88.11;97849.52;1808488;79;21121;-61
2021/01/28 05:05:12;;;;;;;2.80;2.50;;;;;;;-0.68;88.00;97845.28;1808532;79;21052;-61
2021/01/28 05:07:52;;;;;;;1.95;1.70;;;;;;;-0.62;87.98;97845.59;1873665;75;22565;-61
2021/01/28 05:10:44;;;;;;;2.50;2.30;;;;;;;-0.65;87.81;97849.48;1841637;77;21123;-61
2021/01/28 05:13:37;;;;;;;2.47;2.00;;;;;;;-0.64;87.74;97839.24;1841620;78;21134;-61
2021/01/28 05:16:40;;;;;;;2.52;2.27;;;;;;;-0.61;87.32;97853.66;1841534;78;20943;-61
2021/01/28 05:19:48;;;;;;;2.50;1.80;;;;;;;-0.61;87.33;97849.83;1841599;78;21468;-61
2021/01/28 05:22:33;;;;;;;2.60;2.40;;;;;;;-0.62;87.34;97854.09;1837761;78;20915;-61
2021/01/28 05:25:31;;;;;;;1.98;1.82;;;;;;;-0.62;87.10;97859.20;1841496;78;20931;-61
2021/01/28 05:28:38;;;;;;;2.58;2.17;;;;;;;-0.64;87.06;97865.21;1803064;77;21192;-62
2021/01/28 05:31:32;;;;;;;2.55;2.20;;;;;;;-0.67;87.10;97887.81;1841623;78;21019;-61
2021/01/28 05:34:31;;;;;;;1.92;1.70;;;;;;;-0.69;87.24;97862.75;1841566;78;21478;-61
2021/01/28 05:37:07;;;;;;;1.90;1.80;;;;;;;-0.70;87.21;97873.84;1841688;78;21050;-61
2021/01/28 05:39:40;;;;;;;2.37;2.00;;;;;;;-0.70;87.16;97870.84;1807585;78;21046;-61
2021/01/28 05:42:29;;;;;;;2.80;2.30;;;;;;;-0.70;87.23;97864.90;1840823;78;21374;-61
2021/01/28 05:44:58;;;;;;;2.02;1.90;;;;;;;-0.71;87.17;97865.77;1841163;78;21137;-61
2021/01/28 05:47:33;;;;;;;1.72;1.50;;;;;;;-0.72;87.07;97852.17;1810577;78;21122;-61
2021/01/28 05:50:23;;;;;;;2.22;2.00;;;;;;;-0.71;87.01;97879.38;1831099;78;21593;-62
2021/01/28 05:52:51;;;;;;;1.92;1.67;;;;;;;-0.68;86.91;97873.38;1841574;78;21207;-60
2021/01/28 05:55:22;;;;;;;2.15;1.98;;;;;;;-0.68;86.87;97892.95;1818293;78;21250;-62
2021/01/28 05:58:21;;;;;;;2.47;2.00;;;;;;;-0.67;86.77;97884.42;1783967;78;21494;-62
2021/01/28 06:01:08;;;;;;;1.92;1.75;;;;;;;-0.69;86.99;97867.86;1808279;78;21073;-61
2021/01/28 06:04:03;;;;;;;3.30;2.20;;;;;;;-0.69;86.81;97866.58;1778889;79;21124;-62
2021/01/28 06:07:22;;;;;;;3.87;2.47;;;;;;;-0.69;86.81;97852.54;1775015;80;21693;-62
2021/01/28 06:10:31;;;;;;;3.80;2.72;;;;;;;-0.64;87.00;97850.73;1871784;76;22791;-63
2021/01/28 06:13:54;;;;;;;2.25;2.00;;;;;;;-0.66;86.89;97855.03;1833807;78;21183;-63
2021/01/28 06:17:14;;;;;;;2.20;1.82;;;;;;;-0.67;86.76;97846.97;1777107;78;21558;-64
2021/01/28 06:20:39;;;;;;;3.20;2.37;;;;;;;-0.65;86.78;97846.50;1817305;78;21172;-61
2021/01/28 06:23:28;;;;;;;8.30;5.10;;;;;;;-0.63;86.77;97854.97;1838244;77;21140;-63
2021/01/28 06:26:46;;;;;;;2.80;2.25;;;;;;;-0.62;86.65;97848.15;1837461;77;21181;-62
2021/01/28 06:29:34;;;;;;;2.10;1.90;;;;;;;-0.60;86.55;97845.93;1837675;77;21293;-63
2021/01/28 06:32:27;;;;;;;2.70;2.25;;;;;;;-0.58;86.32;97846.74;1837932;78;21410;-62
2021/01/28 06:35:33;;;;;;;3.15;2.10;;;;;;;-0.57;86.32;97859.91;1837344;77;21156;-63
2021/01/28 06:38:44;;;;;;;2.65;1.90;;;;;;;-0.52;86.25;97872.14;1831143;77;21215;-64
2021/01/28 06:41:27;;;;;;;3.30;2.05;;;;;;;-0.49;85.94;97851.65;1886643;75;22237;-64
2021/01/28 06:44:19;;;;;;;3.85;2.10;;;;;;;-0.57;85.99;97842.47;1859558;77;21156;-61
2021/01/28 06:47:19;;;;;;;2.17;1.77;;;;;;;-0.56;85.87;97837.77;1857027;77;21553;-60
2021/01/28 06:50:34;;;;;;;2.37;1.90;;;;;;;-0.55;85.68;97822.41;1852288;76;21473;-61
2021/01/28 06:53:19;;;;;;;2.02;1.60;;;;;;;-0.57;85.68;97830.98;1819237;78;21068;-61
2021/01/28 06:56:43;;;;;;;2.20;2.00;;;;;;;-0.52;85.54;97833.00;1887045;76;22706;-64
2021/01/28 06:59:35;;;;;;;2.27;1.95;;;;;;;-0.56;85.73;97831.38;1852235;77;21047;-62
2021/01/28 07:02:20;;;;;;;2.15;1.65;;;;;;;-0.54;85.59;97825.81;1858166;77;21479;-63
2021/01/28 07:05:17;;;;;;;1.70;1.60;;;;;;;-0.49;85.35;97826.55;1858082;77;20916;-61
2021/01/28 07:07:51;;;;;;;1.60;1.50;;;;;;;-0.50;85.20;97827.42;1858220;77;21042;-63
2021/01/28 07:10:41;;;;;;;1.62;1.40;;;;;;;-0.51;85.15;97820.64;1858459;76;20990;-62
2021/01/28 07:13:23;;;;;;;1.75;1.65;;;;;;;-0.44;85.22;97819.63;1873399;76;23254;-62
2021/01/28 07:16:03;;;;;;;1.87;1.40;;;;;;;-0.47;85.30;97823.52;1815449;78;21542;-62
2021/01/28 07:18:43;;;;;;;2.08;1.72;;;;;;;-0.48;85.23;97818.86;1820736;77;21321;-63
2021/01/28 07:25:31;;;;;;;1.95;1.75;;;;;;;-0.46;85.22;97818.38;1828739;78;20915;-62
2021/01/28 07:28:05;;;;;;;1.82;1.60;;;;;;;-0.47;85.06;97804.37;1825971;78;21057;-64
2021/01/28 07:30:43;;;;;;;2.22;1.90;;;;;;;-0.45;85.02;97810.28;1807606;78;21443;-63
2021/01/28 07:33:32;;;;;;;2.00;1.80;;;;;;;-0.47;85.01;97805.64;1807428;78;21362;-64
2021/01/28 07:36:27;;;;;;;2.35;1.72;;;;;;;-0.46;85.01;97811.16;1794717;79;21262;-65
2021/01/28 07:39:33;;;;;;;2.58;1.90;;;;;;;-0.46;84.97;97814.98;1740920;81;21265;-64
2021/01/28 07:42:30;;;;;;;2.20;2.00;;;;;;;-0.39;84.97;97806.28;1873662;75;22630;-63
2021/01/28 07:45:34;;;;;;;3.42;2.33;;;;;;;-0.43;84.91;97813.64;1827546;77;20998;-66
2021/01/28 07:48:29;;;;;;;2.45;1.95;;;;;;;-0.38;84.86;97824.13;1888577;75;22682;-62
2021/01/28 07:51:37;;;;;;;2.30;2.10;;;;;;;-0.39;84.98;97805.00;1749640;80;21469;-62
2021/01/28 07:54:09;;;;;;;;;;;;;;;-0.38;84.78;97819.02;1849016;77;21576;-63
2021/01/28 07:56:42;;;;;;;3.92;2.83;;;;;;;-0.38;84.79;97804.13;1790659;79;20283;-64
2021/01/28 07:59:19;;;;;;;2.30;2.10;;;;;;;-0.39;85.18;97803.29;1816447;79;20929;-64
2021/01/28 08:01:49;;;;;;;4.70;2.00;;;;;;;-0.37;84.98;97811.76;1809880;79;21004;-65
2021/01/28 08:04:43;;;;;;;2.83;2.00;;;;;;;-0.36;85.00;97806.21;1760789;81;21176;-64
2021/01/28 08:07:13;;;;;;;2.42;2.00;;;;;;;-0.31;85.01;97801.00;1770457;81;22724;-66
2021/01/28 08:09:52;;;;;;;3.12;2.27;;;;;;;-0.29;84.81;97794.98;1772799;81;21083;-63
2021/01/28 08:12:32;;;;;;;3.05;2.25;;;;;;;-0.26;84.45;97798.73;1795492;80;21480;-63
2021/01/28 08:15:01;;;;;;;2.70;2.17;;;;;;;-0.24;84.41;97793.59;1795317;80;21542;-65
2021/01/28 08:17:32;;;;;;;2.35;2.15;;;;;;;-0.21;84.35;97800.75;1795180;79;21531;-63
2021/01/28 08:20:24;;;;;;;3.05;2.35;;;;;;;-0.20;84.28;97792.64;1797931;79;21359;-63
2021/01/28 08:23:02;;;;;;;2.20;2.00;;;;;;;-0.17;84.17;97799.77;1809507;79;21167;-64
2021/01/28 08:25:35;;;;;;;2.95;2.22;;;;;;;-0.11;84.25;97791.12;1804599;79;21183;-63
2021/01/28 08:28:13;;;;;;;2.07;1.87;;;;;;;-0.06;83.99;97800.79;1799725;79;21619;-62
2021/01/28 08:30:42;;;;;;;2.72;1.90;;;;;;;-0.01;84.24;97785.74;1763080;79;21166;-63
2021/01/28 08:33:22;;;;;;;2.10;1.82;;;;;;;0.07;83.44;97810.24;1803454;78;21375;-63
2021/01/28 08:35:53;;;;;;;2.47;2.08;;;;;;;0.09;82.99;97809.33;1799371;79;21663;-65
2021/01/28 08:38:28;;;;;;;2.50;2.10;;;;;;;0.13;83.13;97821.16;1799866;79;21055;-64
2021/01/28 08:41:07;;;;;;;2.47;2.20;;;;;;;0.16;82.54;97831.31;1791195;79;21189;-64
2021/01/28 08:43:34;;;;;;;3.12;2.50;;;;;;;0.17;82.60;97831.71;1761968;79;22178;-64
2021/01/28 08:46:21;;;;;;;2.40;2.20;;;;;;;0.16;82.34;97824.92;1812493;79;22123;-63
2021/01/28 08:48:49;;;;;;;2.40;2.00;;;;;;;0.19;82.38;97822.28;1816323;78;21129;-63
2021/01/28 08:51:26;;;;;;;2.20;2.00;;;;;;;0.21;82.23;97817.94;1816437;79;21589;-64
2021/01/28 08:54:06;;;;;;;2.58;2.33;;;;;;;0.20;82.79;97823.13;1816375;79;21508;-66
2021/01/28 08:56:38;;;;;;;2.75;2.20;;;;;;;0.21;83.51;97833.28;1788384;79;21111;-65
2021/01/28 08:59:09;;;;;;;2.70;2.50;;;;;;;0.21;83.32;97842.23;1809128;79;22183;-64
2021/01/28 09:01:44;;;;;;;2.95;2.40;;;;;;;0.23;83.53;97850.70;1787969;79;21196;-64
2021/01/28 09:04:18;;;;;;;3.50;2.83;;;;;;;0.26;83.22;97834.45;1804849;79;21166;-65
2021/01/28 09:06:47;;;;;;;3.10;2.45;;;;;;;0.27;83.51;97845.08;1725211;82;21310;-65
2021/01/28 09:09:27;;;;;;;2.60;2.30;;;;;;;0.28;83.83;97837.80;1729548;82;21089;-66
2021/01/28 09:12:27;;;;;;;2.85;2.62;;;;;;;0.33;84.46;97832.98;1760944;80;21372;-66
2021/01/28 09:15:16;;;;;;;3.45;2.70;;;;;;;0.36;84.41;97828.66;1714066;82;21197;-65
2021/01/28 09:17:56;;;;;;;2.75;2.50;;;;;;;0.40;84.32;97825.95;1873410;75;22724;-65
2021/01/28 09:20:32;;;;;;;2.83;2.17;;;;;;;0.37;84.20;97846.97;1787067;78;21050;-66
2021/01/28 09:23:11;;;;;;;3.05;2.75;;;;;;;0.36;84.47;97821.83;1841356;77;21421;-65
2021/01/28 09:25:40;;;;;;;4.42;2.70;;;;;;;0.36;84.56;97815.88;1841369;77;21530;-65
2021/01/28 09:28:15;;;;;;;2.98;2.33;;;;;;;0.36;84.42;97817.16;1841442;78;21002;-65
2021/01/28 09:30:49;;;;;;;3.35;2.70;;;;;;;0.34;84.88;97814.64;1841364;77;21137;-65
2021/01/28 09:33:39;;;;;;;3.12;2.83;;;;;;;0.30;85.39;97788.75;1832837;77;21129;-65
2021/01/28 09:36:18;;;;;;;2.72;2.45;;;;;;;0.24;85.38;97779.95;1756313;81;21211;-66
2021/01/28 09:39:09;;;;;;;3.72;2.40;;;;;;;0.21;85.35;97781.31;1765766;80;20994;-65
2021/01/28 09:41:47;;;;;;;3.45;3.15;;;;;;;0.19;85.37;97787.77;1761978;80;21135;-63
2021/01/28 09:44:34;;;;;;;2.75;2.50;;;;;;;0.21;85.70;97785.14;1772536;80;21177;-66
2021/01/28 09:47:07;;;;;;;3.58;2.25;;;;;;;0.26;85.63;97779.03;1762942;80;21532;-67
2021/01/28 09:49:34;;;;;;;3.52;3.00;;;;;;;0.31;85.35;97783.59;1758264;80;21377;-68
2021/01/28 09:52:04;;;;;;;2.60;2.25;;;;;;;0.39;85.12;97785.11;1777046;80;21079;-67
2021/01/28 09:54:34;;;;;;;9.65;2.35;;;;;;;0.43;84.20;97771.33;1772007;80;21127;-65
2021/01/28 09:57:02;;;;;;;2.62;2.30;;;;;;;0.45;84.29;97773.41;1749382;82;21107;-64
2021/01/28 09:59:30;;;;;;;2.55;2.22;;;;;;;0.45;84.24;97779.36;1749526;82;21603;-65
2021/01/28 10:01:58;;;;;;;3.37;2.77;;;;;;;0.48;84.33;97789.95;1748115;82;21260;-65
2021/01/28 10:04:26;;;;;;;3.15;2.12;;;;;;;0.51;84.38;97791.15;1757236;80;21663;-66
2021/01/28 10:06:54;;;;;;;2.80;2.47;;;;;;;0.55;84.07;97788.91;1739586;80;21063;-68
2021/01/28 10:09:22;;;;;;;2.98;2.70;;;;;;;0.61;84.09;97774.20;1742012;81;21067;-68
2021/01/28 10:11:49;;;;;;;4.85;3.25;;;;;;;0.70;83.95;97778.23;1735989;81;21638;-67
2021/01/28 10:14:17;;;;;;;3.15;2.85;;;;;;;0.77;83.56;97777.18;1735491;82;21212;-67
2021/01/28 10:16:45;;;;;;;3.33;2.70;;;;;;;0.83;83.34;97778.70;1734976;80;21504;-68
2021/01/28 10:19:13;;;;;;;2.77;2.50;;;;;;;0.88;82.68;97787.92;1736200;81;21508;-67
2021/01/28 10:21:41;;;;;;;3.17;2.60;;;;;;;0.91;82.59;97781.44;1736220;82;21104;-69
2021/01/28 10:24:10;;;;;;;3.70;3.05;;;;;;;0.97;82.64;97784.27;1736267;82;21124;-69
2021/01/28 10:26:38;;;;;;;2.87;2.58;;;;;;;1.02;82.12;97790.91;1739620;81;21204;-68
2021/01/28 10:29:05;;;;;;;2.47;1.80;;;;;;;1.05;81.80;97783.58;1742722;82;21191;-69
2021/01/28 10:31:34;;;;;;;2.98;2.40;;;;;;;1.05;80.96;97781.02;1744510;81;21194;-70
2021/01/28 10:34:02;;;;;;;3.92;3.10;;;;;;;1.03;81.46;97788.73;1732761;81;21200;-69
2021/01/28 10:36:31;;;;;;;3.17;2.52;;;;;;;1.06;81.65;97779.30;1701244;83;21226;-70
2021/01/28 10:38:58;;;;;;;2.50;2.22;;;;;;;1.04;81.00;97794.26;1702879;82;21225;-67
2021/01/28 10:41:29;;;;;;;3.37;2.52;;;;;;;1.00;81.15;97782.43;1704782;84;21634;-68
2021/01/28 10:43:57;;;;;;;2.85;2.52;;;;;;;0.99;81.27;97776.94;1717136;82;21211;-68
2021/01/28 10:46:27;;;;;;;3.45;2.37;;;;;;;0.98;81.39;97769.30;1748899;82;21140;-68
2021/01/28 10:48:55;;;;;;;2.65;2.45;;;;;;;0.95;83.61;97770.23;1748995;81;21060;-67
2021/01/28 10:51:24;;;;;;;3.15;2.80;;;;;;;0.92;84.19;97763.08;1748973;82;22325;-66
2021/01/28 10:53:51;;;;;;;6.47;2.50;;;;;;;0.91;84.65;97752.45;1748823;82;21091;-67
2021/01/28 10:56:20;;;;;;;3.33;2.75;;;;;;;0.88;83.58;97753.81;1748895;82;21139;-66
2021/01/28 10:58:47;;;;;;;3.42;3.12;;;;;;;0.84;83.80;97753.50;1748847;82;21579;-67
2021/01/28 11:01:15;;;;;;;3.00;2.70;;;;;;;0.76;83.21;97756.75;1749151;80;21150;-66
2021/01/28 11:03:43;;;;;;;3.45;2.77;;;;;;;0.72;83.74;97761.12;1750498;82;22105;-67
2021/01/28 11:06:12;;;;;;;4.70;3.70;;;;;;;0.73;83.57;97753.00;1744560;82;21655;-67
2021/01/28 11:08:41;;;;;;;2.98;2.67;;;;;;;0.75;83.65;97751.23;1739301;82;21121;-66
2021/01/28 11:11:11;;;;;;;3.62;2.72;;;;;;;0.77;83.03;97746.47;1723830;81;21181;-67
2021/01/28 11:13:42;;;;;;;2.87;2.40;;;;;;;0.77;82.77;97749.03;1751322;80;21181;-67
2021/01/28 11:16:12;;;;;;;3.12;2.70;;;;;;;0.75;82.73;97735.88;1752810;80;21367;-66
2021/01/28 11:18:40;;;;;;;3.08;2.77;;;;;;;0.75;83.12;97739.72;1753754;80;21948;-67
2021/01/28 11:21:08;;;;;;;3.27;2.98;;;;;;;0.74;82.56;97724.81;1757047;81;21620;-67
2021/01/28 11:23:36;;;;;;;3.37;2.40;;;;;;;0.75;82.70;97724.37;1745384;80;21171;-66
2021/01/28 11:26:04;;;;;;;3.58;2.50;;;;;;;0.78;82.41;97740.91;1736865;81;21064;-66
2021/01/28 11:28:32;;;;;;;3.80;2.75;;;;;;;0.75;82.52;97708.58;1735434;82;22596;-66
2021/01/28 11:31:00;;;;;;;3.47;2.65;;;;;;;0.73;82.92;97709.06;1735677;81;21139;-66
2021/01/28 11:33:30;;;;;;;3.15;2.65;;;;;;;0.73;82.84;97710.78;1735711;82;21184;-68
2021/01/28 11:35:57;;;;;;;3.15;2.45;;;;;;;0.75;82.98;97708.58;1735663;82;21223;-66
2021/01/28 11:38:25;;;;;;;2.60;2.37;;;;;;;0.80;82.54;97704.60;1735700;82;21072;-65
2021/01/28 11:40:54;;;;;;;2.75;2.55;;;;;;;0.82;82.28;97694.69;1735627;82;21528;-64
2021/01/28 11:43:22;;;;;;;3.35;2.87;;;;;;;0.82;81.94;97693.84;1735671;81;21094;-66
2021/01/28 11:45:51;;;;;;;3.12;2.72;;;;;;;0.78;81.70;97688.02;1735692;82;21189;-64
2021/01/28 11:48:18;;;;;;;3.87;2.65;;;;;;;0.75;81.87;97688.10;1735474;81;21216;-66
2021/01/28 11:50:47;;;;;;;2.80;2.60;;;;;;;0.75;81.92;97690.66;1735296;82;21186;-64
2021/01/28 11:53:15;;;;;;;3.10;2.75;;;;;;;0.74;81.63;97691.55;1734976;82;21281;-65
2021/01/28 11:55:42;;;;;;;3.37;2.42;;;;;;;0.72;81.78;97689.47;1736783;82;21641;-68
2021/01/28 11:58:12;;;;;;;2.22;2.02;;;;;;;0.69;81.53;97699.35;1726153;81;21661;-64
2021/01/28 12:00:40;;;;;;;2.45;2.10;;;;;;;0.67;81.65;97692.16;1722720;82;22285;-66
2021/01/28 12:03:09;;;;;;;2.30;2.10;;;;;;;0.66;81.76;97702.44;1750089;82;21130;-64
2021/01/28 12:05:38;;;;;;;3.17;2.20;;;;;;;0.62;81.68;97703.41;1750146;82;21458;-67
2021/01/28 12:08:05;;;;;;;2.67;2.25;;;;;;;0.60;81.53;97706.48;1749679;82;21177;-66
2021/01/28 12:10:34;;;;;;;3.52;1.90;;;;;;;0.57;81.87;97707.41;1750256;82;21082;-66
2021/01/28 12:13:02;;;;;;;2.30;1.90;;;;;;;0.58;81.81;97704.41;1743931;80;21197;-66
2021/01/28 12:15:30;;;;;;;2.27;1.80;;;;;;;0.56;82.09;97704.45;1719803;82;21153;-66
2021/01/28 12:17:58;;;;;;;2.15;1.95;;;;;;;0.51;81.89;97722.92;1729098;82;23513;-65
2021/01/28 12:20:29;;;;;;;2.33;1.95;;;;;;;0.47;81.88;97707.27;1736023;81;21233;-65
2021/01/28 12:22:57;;;;;;;1.57;1.47;;;;;;;0.45;82.17;97699.23;1735984;82;21653;-65
2021/01/28 12:25:27;;;;;;;5.03;2.27;;;;;;;0.43;81.80;97719.73;1734261;81;21190;-66